Time;durP1;ratioP1;P1;durP2;ratioP2;P2;SDS_P1;SDS_P2;PMS_P1;PMS_P2;Temp;Humidity;BMP_temperature;BMP_pressure;BME280_temperature;BME280_humidity;BME280_pressure;Samples;Min_cycle;Max_cycle;Signal;HPM_P1;HPM_P2
2024/01/14 00:02:24;;;;;;;;;;;-4.50;99.90;;;;;;4922252;29;20058;-88
2024/01/14 00:04:49;;;;;;;;;;;-4.50;99.90;;;;;;4909295;29;20009;-89
2024/01/14 00:07:15;;;;;;;;;;;-4.40;99.90;;;;;;4923663;29;19961;-88
2024/01/14 00:09:41;;;;;;;;;;;-4.40;99.90;;;;;;4926423;29;20323;-88
2024/01/14 00:12:07;;;;;;;;;;;-4.50;99.90;;;;;;4938349;29;19994;-89
2024/01/14 00:14:32;;;;;;;;;;;-4.50;99.90;;;;;;4923036;29;20275;-89
2024/01/14 00:16:58;;;;;;;;;;;-4.40;99.90;;;;;;4931047;29;19919;-89
2024/01/14 00:19:23;;;;;;;;;;;-4.40;99.90;;;;;;4939284;29;19915;-89
2024/01/14 00:21:55;;;;;;;;;;;-4.40;99.90;;;;;;4909178;29;19954;-88
2024/01/14 00:24:21;;;;;;;;;;;-4.40;99.90;;;;;;4939381;29;20019;-88
2024/01/14 00:26:46;;;;;;;;;;;-4.40;99.90;;;;;;4910328;29;19954;-88
2024/01/14 00:29:12;;;;;;;;;;;-4.40;99.90;;;;;;4938724;29;19918;-88
2024/01/14 00:31:37;;;;;;;;;;;-4.40;99.90;;;;;;4904796;29;19930;-89
2024/01/14 00:34:04;;;;;;;;;;;-4.40;99.90;;;;;;4923126;29;19919;-88
2024/01/14 00:36:29;;;;;;;;;;;-4.40;99.90;;;;;;4904248;29;20327;-89
2024/01/14 00:42:23;;;;;;;;;;;-4.40;99.90;;;;;;4939892;29;19961;-89
2024/01/14 00:44:49;;;;;;;;;;;-4.50;99.90;;;;;;4923746;29;20422;-88
2024/01/14 00:47:15;;;;;;;;;;;-4.50;99.90;;;;;;4923100;29;20004;-88
2024/01/14 00:49:40;;;;;;;;;;;-4.50;99.90;;;;;;4917890;29;20387;-89
2024/01/14 00:52:06;;;;;;;;;;;-4.50;99.90;;;;;;4947859;29;19923;-88
2024/01/14 00:54:32;;;;;;;;;;;-4.50;99.90;;;;;;4909130;29;19914;-89
2024/01/14 00:56:57;;;;;;;;;;;-4.50;99.90;;;;;;4916917;29;19927;-88
2024/01/14 00:59:23;;;;;;;;;;;-4.40;99.90;;;;;;4922563;29;19922;-88
2024/01/14 01:01:49;;;;;;;;;;;-4.50;99.90;;;;;;4907958;29;19926;-88
2024/01/14 01:04:14;;;;;;;;;;;-4.50;99.90;;;;;;4938381;29;20252;-89
2024/01/14 01:06:40;;;;;;;;;;;-4.50;99.90;;;;;;4904137;29;20010;-89
2024/01/14 01:09:06;;;;;;;;;;;-4.50;99.90;;;;;;4938207;29;19915;-88
2024/01/14 01:11:31;;;;;;;;;;;-4.50;99.90;;;;;;4926158;29;19915;-87
2024/01/14 01:13:57;;;;;;;;;;;-4.60;99.90;;;;;;4939708;29;19925;-88
2024/01/14 01:16:23;;;;;;;;;;;-4.50;99.90;;;;;;4938305;29;19915;-88
2024/01/14 01:18:48;;;;;;;;;;;-4.50;99.90;;;;;;4938115;29;20433;-89
2024/01/14 01:21:18;;;;;;;;;;;-4.40;99.90;;;;;;4922260;29;19915;-89
2024/01/14 01:23:43;;;;;;;;;;;-4.50;99.90;;;;;;4942100;29;19946;-89
2024/01/14 01:26:09;;;;;;;;;;;-4.50;99.90;;;;;;4938261;29;19918;-89
2024/01/14 01:28:34;;;;;;;;;;;-4.50;99.90;;;;;;4939876;29;19915;-89
2024/01/14 01:31:00;;;;;;;;;;;-4.50;99.90;;;;;;4928522;29;20370;-88
2024/01/14 01:33:25;;;;;;;;;;;-4.50;99.90;;;;;;4937268;29;19927;-88
2024/01/14 01:35:51;;;;;;;;;;;-4.60;99.90;;;;;;4906206;29;19922;-89
2024/01/14 01:38:17;;;;;;;;;;;-4.60;99.90;;;;;;4937741;29;19996;-88
2024/01/14 01:40:42;;;;;;;;;;;-4.60;99.90;;;;;;4907470;29;19916;-88
2024/01/14 01:43:08;;;;;;;;;;;-4.70;99.90;;;;;;4937667;29;19970;-88
2024/01/14 01:45:33;;;;;;;;;;;-4.70;99.90;;;;;;4909270;29;19915;-88
2024/01/14 01:48:00;;;;;;;;;;;-4.70;99.90;;;;;;4936583;29;20337;-88
2024/01/14 01:50:27;;;;;;;;;;;-4.80;99.90;;;;;;4906281;29;19954;-88
2024/01/14 01:52:53;;;;;;;;;;;-4.70;99.90;;;;;;4937115;29;20347;-88
2024/01/14 01:55:19;;;;;;;;;;;-4.70;99.90;;;;;;4937550;29;19915;-88
2024/01/14 01:57:45;;;;;;;;;;;-4.70;99.90;;;;;;4937936;29;19926;-88
2024/01/14 02:00:12;;;;;;;;;;;-4.70;99.90;;;;;;4937498;29;19915;-88
2024/01/14 02:02:40;;;;;;;;;;;-4.70;99.90;;;;;;4938344;29;20311;-88
2024/01/14 02:05:06;;;;;;;;;;;-4.60;99.90;;;;;;4928583;29;19915;-88
2024/01/14 02:07:32;;;;;;;;;;;-4.60;99.90;;;;;;4937323;29;20315;-88
2024/01/14 02:09:57;;;;;;;;;;;-4.60;99.90;;;;;;4912588;29;19921;-88
2024/01/14 02:12:23;;;;;;;;;;;-4.60;99.90;;;;;;4936759;29;19914;-89
2024/01/14 02:18:17;;;;;;;;;;;-4.60;99.90;;;;;;4938806;29;19930;-88
2024/01/14 02:20:43;;;;;;;;;;;-4.60;99.90;;;;;;4937071;29;19915;-89
2024/01/14 02:23:09;;;;;;;;;;;-4.60;99.90;;;;;;4905294;29;19922;-88
2024/01/14 02:25:35;;;;;;;;;;;-4.60;99.90;;;;;;4936989;29;20303;-88
2024/01/14 02:28:01;;;;;;;;;;;-4.60;99.90;;;;;;4920966;29;20010;-87
2024/01/14 02:30:27;;;;;;;;;;;-4.60;99.90;;;;;;4920665;29;19915;-88
2024/01/14 02:32:54;;;;;;;;;;;-4.50;99.90;;;;;;4904756;29;19915;-88
2024/01/14 02:35:19;;;;;;;;;;;-4.40;99.90;;;;;;4936930;29;19965;-88
2024/01/14 02:38:03;;;;;;;;;;;-4.50;99.90;;;;;;4936470;29;20013;-88
2024/01/14 02:40:41;;;;;;;;;;;-4.40;99.90;;;;;;4930748;29;19922;-88
2024/01/14 02:43:06;;;;;;;;;;;-4.40;99.90;;;;;;4936399;29;19930;-88
2024/01/14 02:45:32;;;;;;;;;;;-4.50;99.90;;;;;;4936636;29;19915;-88
2024/01/14 02:47:58;;;;;;;;;;;-4.50;99.90;;;;;;4936000;29;20320;-88
2024/01/14 02:50:23;;;;;;;;;;;-4.50;99.90;;;;;;4921193;29;19915;-88
2024/01/14 02:52:49;;;;;;;;;;;-4.50;99.90;;;;;;4936354;29;19914;-88
2024/01/14 02:55:16;;;;;;;;;;;-4.50;99.90;;;;;;4936315;29;20002;-88
2024/01/14 02:57:42;;;;;;;;;;;-4.40;99.90;;;;;;4935870;29;20264;-88
2024/01/14 03:00:07;;;;;;;;;;;-4.50;99.90;;;;;;4904378;29;19919;-87
2024/01/14 03:06:02;;;;;;;;;;;-4.50;99.90;;;;;;4937582;29;19938;-88
2024/01/14 03:08:28;;;;;;;;;;;-4.50;99.90;;;;;;4936162;29;19923;-88
2024/01/14 03:10:55;;;;;;;;;;;-4.50;99.90;;;;;;4931553;28;19927;-88
2024/01/14 03:13:20;;;;;;;;;;;-4.40;99.90;;;;;;4935656;29;19915;-88
2024/01/14 03:15:46;;;;;;;;;;;-4.50;99.90;;;;;;4936099;29;19943;-88
2024/01/14 03:18:12;;;;;;;;;;;-4.50;99.90;;;;;;4935651;29;19983;-88
2024/01/14 03:20:37;;;;;;;;;;;-4.50;99.90;;;;;;4935982;29;19915;-88
2024/01/14 03:23:03;;;;;;;;;;;-4.50;99.90;;;;;;4904443;29;19915;-88
2024/01/14 03:25:29;;;;;;;;;;;-4.50;99.90;;;;;;4935517;29;20256;-88
2024/01/14 03:27:54;;;;;;;;;;;-4.50;99.90;;;;;;4904134;29;20318;-88
2024/01/14 03:30:20;;;;;;;;;;;-4.50;99.90;;;;;;4937843;29;19915;-88
2024/01/14 03:33:04;;;;;;;;;;;-4.50;99.90;;;;;;4920205;29;19914;-87
2024/01/14 03:35:29;;;;;;;;;;;-4.50;99.90;;;;;;4915123;29;19919;-88
2024/01/14 03:37:55;;;;;;;;;;;-4.50;99.90;;;;;;4927839;29;20435;-88
2024/01/14 03:40:21;;;;;;;;;;;-4.60;99.90;;;;;;4939931;29;19922;-88
2024/01/14 03:42:46;;;;;;;;;;;-4.60;99.90;;;;;;4939621;29;19954;-88
2024/01/14 03:45:12;;;;;;;;;;;-4.60;99.90;;;;;;4947832;29;19922;-88
2024/01/14 03:47:37;;;;;;;;;;;-4.60;99.90;;;;;;4943550;29;20430;-88
2024/01/14 03:50:03;;;;;;;;;;;-4.50;99.90;;;;;;4940421;29;19922;-87
2024/01/14 03:52:29;;;;;;;;;;;-4.60;99.90;;;;;;4940000;29;19921;-88
2024/01/14 03:54:55;;;;;;;;;;;-4.60;99.90;;;;;;4939653;29;20418;-88
2024/01/14 03:57:21;;;;;;;;;;;-4.60;99.90;;;;;;4939869;29;19915;-88
2024/01/14 03:59:46;;;;;;;;;;;-4.60;99.90;;;;;;4939158;29;19937;-88
2024/01/14 04:02:12;;;;;;;;;;;-4.60;99.90;;;;;;4910166;29;19915;-88
2024/01/14 04:04:38;;;;;;;;;;;-4.60;99.90;;;;;;4939847;29;20386;-88
2024/01/14 04:07:03;;;;;;;;;;;-4.50;99.90;;;;;;4939445;29;19977;-88
2024/01/14 04:09:29;;;;;;;;;;;-4.50;99.90;;;;;;4939249;29;20362;-88
2024/01/14 04:11:54;;;;;;;;;;;-4.50;99.90;;;;;;4947107;29;19962;-88
2024/01/14 04:14:20;;;;;;;;;;;-4.50;99.90;;;;;;4923253;29;19914;-88
2024/01/14 04:16:45;;;;;;;;;;;-4.50;99.90;;;;;;4938868;29;19926;-88
2024/01/14 04:19:11;;;;;;;;;;;-4.50;99.90;;;;;;4938750;29;20322;-88
2024/01/14 04:21:37;;;;;;;;;;;-4.50;99.90;;;;;;4939100;29;19915;-88
2024/01/14 04:24:02;;;;;;;;;;;-4.40;99.90;;;;;;4941957;29;19910;-88
2024/01/14 04:26:28;;;;;;;;;;;-4.40;99.90;;;;;;4943005;29;20258;-87
2024/01/14 04:28:54;;;;;;;;;;;-4.40;99.90;;;;;;4923555;29;19921;-88
2024/01/14 04:31:20;;;;;;;;;;;-4.40;99.90;;;;;;4907435;29;20389;-88
2024/01/14 04:33:46;;;;;;;;;;;-4.40;99.90;;;;;;4938645;29;20334;-88
2024/01/14 04:36:12;;;;;;;;;;;-4.40;99.90;;;;;;4925878;29;19915;-88
2024/01/14 04:38:38;;;;;;;;;;;-4.50;99.90;;;;;;4938749;29;19978;-88
2024/01/14 04:41:04;;;;;;;;;;;-4.60;99.90;;;;;;4939180;29;20279;-88
2024/01/14 04:43:29;;;;;;;;;;;-4.60;99.90;;;;;;4938978;29;19921;-88
2024/01/14 04:45:55;;;;;;;;;;;-4.60;99.90;;;;;;4940126;29;20282;-88
2024/01/14 04:48:21;;;;;;;;;;;-4.60;99.90;;;;;;4938739;29;20438;-88
2024/01/14 04:50:46;;;;;;;;;;;-4.60;99.90;;;;;;4939213;29;19916;-88
2024/01/14 04:53:12;;;;;;;;;;;-4.60;99.90;;;;;;4938486;29;20260;-88
2024/01/14 04:55:37;;;;;;;;;;;-4.60;99.90;;;;;;4938716;29;19923;-88
2024/01/14 04:58:03;;;;;;;;;;;-4.60;99.90;;;;;;4938601;29;20375;-88
2024/01/14 05:00:29;;;;;;;;;;;-4.60;99.90;;;;;;4947007;29;20260;-88
2024/01/14 05:02:54;;;;;;;;;;;-4.50;99.90;;;;;;4940178;29;19951;-88
2024/01/14 05:05:20;;;;;;;;;;;-4.60;99.90;;;;;;4907011;29;20091;-88
2024/01/14 05:07:46;;;;;;;;;;;-4.60;99.90;;;;;;4938591;29;19914;-88
2024/01/14 05:10:11;;;;;;;;;;;-4.70;99.90;;;;;;4906541;29;20256;-87
2024/01/14 05:12:37;;;;;;;;;;;-4.70;99.90;;;;;;4938657;29;19915;-88
2024/01/14 05:15:03;;;;;;;;;;;-4.70;99.90;;;;;;4938550;29;19923;-88
2024/01/14 05:20:57;;;;;;;;;;;-4.60;99.90;;;;;;4935798;29;19925;-88
2024/01/14 05:23:23;;;;;;;;;;;-4.50;99.90;;;;;;4922178;29;20410;-88
2024/01/14 05:25:49;;;;;;;;;;;-4.60;99.90;;;;;;4909011;29;19919;-88
2024/01/14 05:28:14;;;;;;;;;;;-4.70;99.90;;;;;;4944101;29;19915;-88
2024/01/14 05:30:40;;;;;;;;;;;-4.70;99.90;;;;;;4906704;29;19922;-88
2024/01/14 05:33:05;;;;;;;;;;;-4.70;99.90;;;;;;4937517;29;20046;-87
2024/01/14 05:35:31;;;;;;;;;;;-4.70;99.90;;;;;;4906325;29;19922;-88
2024/01/14 05:37:57;;;;;;;;;;;-4.70;99.90;;;;;;4938060;29;19954;-88
2024/01/14 05:40:22;;;;;;;;;;;-4.70;99.90;;;;;;4910646;29;19915;-88
2024/01/14 05:42:48;;;;;;;;;;;-4.70;99.90;;;;;;4922040;29;19922;-88
2024/01/14 05:45:13;;;;;;;;;;;-4.70;99.90;;;;;;4935768;29;20285;-88
2024/01/14 05:51:09;;;;;;;;;;;-4.70;99.90;;;;;;4939237;29;19985;-88
2024/01/14 05:53:35;;;;;;;;;;;-4.70;99.90;;;;;;4944743;29;19921;-88
2024/01/14 05:56:02;;;;;;;;;;;-4.70;99.90;;;;;;4937634;29;19914;-87
2024/01/14 05:58:28;;;;;;;;;;;-4.80;99.90;;;;;;4910069;29;19923;-88
2024/01/14 06:00:53;;;;;;;;;;;-4.70;99.90;;;;;;4937212;29;20390;-87
2024/01/14 06:03:19;;;;;;;;;;;-4.70;99.90;;;;;;4905441;29;20050;-88
2024/01/14 06:05:44;;;;;;;;;;;-4.70;99.90;;;;;;4937063;29;19914;-88
2024/01/14 06:08:10;;;;;;;;;;;-4.70;99.90;;;;;;4928712;29;19932;-87
2024/01/14 06:10:36;;;;;;;;;;;-4.70;99.90;;;;;;4937475;29;19919;-88
2024/01/14 06:13:01;;;;;;;;;;;-4.70;99.90;;;;;;4906228;29;19921;-88
2024/01/14 06:15:27;;;;;;;;;;;-4.70;99.90;;;;;;4937521;29;20396;-88
2024/01/14 06:17:52;;;;;;;;;;;-4.70;99.90;;;;;;4905806;29;19974;-88
2024/01/14 06:20:18;;;;;;;;;;;-4.70;99.90;;;;;;4935762;29;20635;-88
2024/01/14 06:22:44;;;;;;;;;;;-4.70;99.90;;;;;;4925327;29;19915;-88
2024/01/14 06:25:09;;;;;;;;;;;-4.70;99.90;;;;;;4937017;29;19915;-88
2024/01/14 06:27:35;;;;;;;;;;;-4.70;99.90;;;;;;4938021;29;19938;-88
2024/01/14 06:30:01;;;;;;;;;;;-4.70;99.90;;;;;;4938128;29;20370;-88
2024/01/14 06:35:55;;;;;;;;;;;-4.80;99.90;;;;;;4940206;29;20360;-88
2024/01/14 06:38:21;;;;;;;;;;;-4.70;99.90;;;;;;4938645;29;19984;-88
2024/01/14 06:40:46;;;;;;;;;;;-4.70;99.90;;;;;;4928279;29;20287;-89
2024/01/14 06:43:12;;;;;;;;;;;-4.80;99.90;;;;;;4937533;29;19954;-89
2024/01/14 06:45:37;;;;;;;;;;;-4.80;99.90;;;;;;4937824;29;20287;-89
2024/01/14 06:48:03;;;;;;;;;;;-4.80;99.90;;;;;;4937881;29;19990;-89
2024/01/14 06:50:29;;;;;;;;;;;-4.80;99.90;;;;;;4913510;29;19921;-89
2024/01/14 06:52:55;;;;;;;;;;;-4.70;99.90;;;;;;4938053;29;19899;-90
2024/01/14 06:55:21;;;;;;;;;;;-4.70;99.90;;;;;;4922539;29;19922;-89
2024/01/14 06:57:46;;;;;;;;;;;-4.80;99.90;;;;;;4936823;29;19974;-90
2024/01/14 07:00:12;;;;;;;;;;;-4.80;99.90;;;;;;4908200;29;19915;-90
2024/01/14 07:02:38;;;;;;;;;;;-4.80;99.90;;;;;;4921720;29;20324;-90
2024/01/14 07:05:05;;;;;;;;;;;-4.80;99.90;;;;;;4937243;29;20009;-90
2024/01/14 07:07:30;;;;;;;;;;;-4.90;99.90;;;;;;4905730;29;19963;-89
2024/01/14 07:10:30;;;;;;;;;;;-4.90;99.90;;;;;;4937302;29;20316;-90
2024/01/14 07:12:55;;;;;;;;;;;-4.90;99.90;;;;;;4937338;29;20438;-89
2024/01/14 07:15:21;;;;;;;;;;;-4.90;99.90;;;;;;4920484;29;19954;-89
2024/01/14 07:17:47;;;;;;;;;;;-4.90;99.90;;;;;;4920485;29;19918;-86
2024/01/14 07:20:13;;;;;;;;;;;-4.90;99.90;;;;;;4933764;29;19914;-87
2024/01/14 07:22:38;;;;;;;;;;;-4.90;99.90;;;;;;4918741;29;19970;-86
2024/01/14 07:25:04;;;;;;;;;;;-4.90;99.90;;;;;;4934632;29;19919;-86
2024/01/14 07:27:30;;;;;;;;;;;-4.90;99.90;;;;;;4902688;29;19919;-87
2024/01/14 07:29:56;;;;;;;;;;;-4.90;99.90;;;;;;4937165;29;19966;-87
2024/01/14 07:32:21;;;;;;;;;;;-4.90;99.90;;;;;;4902294;29;19994;-87
2024/01/14 07:34:47;;;;;;;;;;;-4.90;99.90;;;;;;4926164;29;19923;-86
2024/01/14 07:37:13;;;;;;;;;;;-4.80;99.90;;;;;;4927305;29;20775;-86
2024/01/14 07:39:38;;;;;;;;;;;-4.80;99.90;;;;;;4900992;29;19965;-85
2024/01/14 07:42:05;;;;;;;;;;;-4.80;99.90;;;;;;4931586;29;20036;-86
2024/01/14 07:44:30;;;;;;;;;;;-4.80;99.90;;;;;;4916182;29;19921;-85
2024/01/14 07:46:57;;;;;;;;;;;-4.80;99.90;;;;;;4933842;29;19926;-86
2024/01/14 07:49:22;;;;;;;;;;;-4.80;99.90;;;;;;4901852;29;20503;-86
2024/01/14 07:51:51;;;;;;;;;;;-4.90;99.90;;;;;;4926159;29;19986;-86
2024/01/14 07:54:17;;;;;;;;;;;-4.90;99.90;;;;;;4917097;29;19918;-86
2024/01/14 08:00:12;;;;;;;;;;;-4.80;99.90;;;;;;4934544;29;19926;-86
2024/01/14 08:02:38;;;;;;;;;;;-4.80;99.90;;;;;;4930215;28;19970;-86
2024/01/14 08:05:04;;;;;;;;;;;-4.80;99.90;;;;;;4930795;29;19969;-86
2024/01/14 08:07:30;;;;;;;;;;;-4.80;99.90;;;;;;4935179;29;19915;-86
2024/01/14 08:09:56;;;;;;;;;;;-4.90;99.90;;;;;;4936421;29;19915;-86
2024/01/14 08:12:22;;;;;;;;;;;-4.90;99.90;;;;;;4933624;29;20003;-85
2024/01/14 08:14:49;;;;;;;;;;;-4.90;99.90;;;;;;4937329;29;19994;-85
2024/01/14 08:17:15;;;;;;;;;;;-4.90;99.90;;;;;;4930968;29;19929;-86
2024/01/14 08:19:41;;;;;;;;;;;-4.80;99.90;;;;;;4939939;29;20442;-86
2024/01/14 08:22:07;;;;;;;;;;;-4.80;99.90;;;;;;4924185;29;19919;-86
2024/01/14 08:24:36;;;;;;;;;;;-4.80;99.90;;;;;;4949982;29;20603;-86
2024/01/14 08:30:29;;;;;;;;;;;-4.80;99.90;;;;;;4935936;29;19922;-86
2024/01/14 08:32:55;;;;;;;;;;;-4.70;99.90;;;;;;4929235;29;20286;-86
2024/01/14 08:35:23;;;;;;;;;;;-4.70;99.90;;;;;;4930919;29;20520;-87
2024/01/14 08:37:49;;;;;;;;;;;-4.80;99.90;;;;;;4929043;29;20086;-86
2024/01/14 08:40:15;;;;;;;;;;;-4.80;99.90;;;;;;4897368;29;20392;-86
2024/01/14 08:42:44;;;;;;;;;;;-4.70;99.90;;;;;;4931002;29;20505;-86
2024/01/14 08:45:10;;;;;;;;;;;-4.70;99.90;;;;;;4919411;29;20017;-86
2024/01/14 08:47:36;;;;;;;;;;;-4.70;99.90;;;;;;4906201;29;19939;-86
2024/01/14 08:50:02;;;;;;;;;;;-4.70;99.90;;;;;;4921132;29;19993;-86
2024/01/14 08:52:27;;;;;;;;;;;-4.60;99.90;;;;;;4921699;29;19923;-86
2024/01/14 08:54:53;;;;;;;;;;;-4.60;99.90;;;;;;4937087;29;19918;-86
2024/01/14 08:57:18;;;;;;;;;;;-4.70;99.90;;;;;;4927341;29;19926;-85
2024/01/14 08:59:44;;;;;;;;;;;-4.70;99.90;;;;;;4937637;29;19967;-86
2024/01/14 09:02:10;;;;;;;;;;;-4.60;99.90;;;;;;4936374;29;19915;-86
2024/01/14 09:05:05;;;;;;;;;;;-4.60;99.90;;;;;;4931192;29;20276;-86
2024/01/14 09:07:30;;;;;;;;;;;-4.60;99.90;;;;;;4918602;29;19919;-86
2024/01/14 09:09:56;;;;;;;;;;;-4.50;99.90;;;;;;4931748;29;20669;-86
2024/01/14 09:12:22;;;;;;;;;;;-4.50;99.90;;;;;;4918428;29;19922;-86
2024/01/14 09:14:48;;;;;;;;;;;-4.60;99.90;;;;;;4920036;29;20686;-87
2024/01/14 09:17:13;;;;;;;;;;;-4.50;99.90;;;;;;4933723;28;19923;-86
2024/01/14 09:19:39;;;;;;;;;;;-4.40;99.90;;;;;;4929369;29;19915;-86
2024/01/14 09:22:05;;;;;;;;;;;-4.40;99.90;;;;;;4904571;29;19925;-86
2024/01/14 09:24:30;;;;;;;;;;;-4.50;99.90;;;;;;4927262;29;20389;-86
2024/01/14 09:26:56;;;;;;;;;;;-4.50;99.90;;;;;;4935731;29;19922;-85
2024/01/14 09:29:22;;;;;;;;;;;-4.60;99.90;;;;;;4944743;29;20051;-86
2024/01/14 09:31:50;;;;;;;;;;;-4.60;99.90;;;;;;4901030;28;20393;-86
2024/01/14 09:34:20;;;;;;;;;;;-4.50;99.90;;;;;;4912628;29;20642;-86
2024/01/14 09:36:45;;;;;;;;;;;-4.50;99.90;;;;;;4912523;29;19961;-86
2024/01/14 09:39:11;;;;;;;;;;;-4.50;99.90;;;;;;4910844;29;20567;-85
2024/01/14 09:41:41;;;;;;;;;;;-4.50;99.90;;;;;;4938074;29;19971;-86
2024/01/14 09:44:09;;;;;;;;;;;-4.40;99.90;;;;;;4923072;29;19926;-85
2024/01/14 09:46:35;;;;;;;;;;;-4.40;99.90;;;;;;4940722;29;19919;-85
2024/01/14 09:49:01;;;;;;;;;;;-4.40;99.90;;;;;;4919761;29;19921;-86
2024/01/14 09:51:30;;;;;;;;;;;-4.40;99.90;;;;;;4921433;29;19921;-85
2024/01/14 09:53:56;;;;;;;;;;;-4.30;99.90;;;;;;4918039;29;20404;-87
2024/01/14 09:56:22;;;;;;;;;;;-4.30;99.90;;;;;;4939651;29;19925;-86
2024/01/14 09:58:57;;;;;;;;;;;-4.30;99.90;;;;;;4913165;29;19927;-85
2024/01/14 10:01:23;;;;;;;;;;;-4.30;99.90;;;;;;4934936;29;19962;-85
2024/01/14 10:03:50;;;;;;;;;;;-4.20;99.90;;;;;;4903565;29;20001;-86
2024/01/14 10:06:29;;;;;;;;;;;-4.10;99.90;;;;;;4934565;29;20442;-85
2024/01/14 10:08:55;;;;;;;;;;;-4.20;99.90;;;;;;4934626;29;19915;-85
2024/01/14 10:11:21;;;;;;;;;;;-4.10;99.90;;;;;;4934505;29;19914;-85
2024/01/14 10:13:48;;;;;;;;;;;-4.10;99.90;;;;;;4931814;29;20405;-86
2024/01/14 10:16:13;;;;;;;;;;;-3.90;99.90;;;;;;4905024;29;19966;-86
2024/01/14 10:18:39;;;;;;;;;;;-3.80;99.90;;;;;;4902521;29;20402;-86
2024/01/14 10:21:04;;;;;;;;;;;-3.70;99.90;;;;;;4933847;29;20588;-85
2024/01/14 10:23:30;;;;;;;;;;;-3.60;99.90;;;;;;4934758;29;20268;-86
2024/01/14 10:26:01;;;;;;;;;;;-3.60;99.90;;;;;;4923258;29;19970;-86
2024/01/14 10:28:36;;;;;;;;;;;-3.60;99.90;;;;;;4918715;29;20006;-85
2024/01/14 10:31:03;;;;;;;;;;;-3.40;99.90;;;;;;4916780;29;20001;-85
2024/01/14 10:33:35;;;;;;;;;;;-3.30;99.90;;;;;;4922128;29;20328;-85
2024/01/14 10:36:05;;;;;;;;;;;-3.40;99.90;;;;;;4917432;28;20290;-86
2024/01/14 10:38:40;;;;;;;;;;;-3.50;99.90;;;;;;4907608;29;19989;-86
2024/01/14 10:41:06;;;;;;;187.20;41.13;;;-3.40;99.90;;;;;;4926318;29;20085;-86
2024/01/14 10:43:33;;;;;;;129.95;39.50;;;-3.50;99.90;;;;;;4918207;29;20031;-85
2024/01/14 10:46:00;;;;;;;140.75;37.50;;;-3.30;99.90;;;;;;4907444;29;20027;-86
2024/01/14 10:48:27;;;;;;;127.32;38.50;;;-3.30;99.90;;;;;;4920422;29;20112;-85
2024/01/14 10:51:00;;;;;;;152.65;38.38;;;-3.20;99.90;;;;;;4917151;29;20059;-86
2024/01/14 10:53:40;;;;;;;130.20;37.38;;;-3.20;99.90;;;;;;4913895;29;20108;-85
2024/01/14 10:56:11;;;;;;;119.38;35.40;;;-3.20;99.90;;;;;;4909929;29;20032;-86
2024/01/14 10:58:41;;;;;;;130.05;36.58;;;-2.80;99.90;;;;;;4914168;29;20112;-86
2024/01/14 11:01:28;;;;;;;135.37;37.30;;;-2.50;99.90;;;;;;4917671;29;20046;-85
2024/01/14 11:03:54;;;;;;;113.70;34.97;;;-2.30;99.90;;;;;;4916095;29;20290;-86
2024/01/14 11:06:21;;;;;;;129.82;32.92;;;-2.10;99.90;;;;;;4926787;29;20028;-86
2024/01/14 11:08:53;;;;;;;112.53;33.13;;;-2.00;99.90;;;;;;4915874;29;20480;-86
2024/01/14 11:11:28;;;;;;;107.32;33.20;;;-2.10;99.90;;;;;;4914521;29;20733;-85
2024/01/14 11:14:18;;;;;;;122.43;35.28;;;-2.10;99.90;;;;;;4918275;29;20042;-86
2024/01/14 11:16:52;;;;;;;107.30;33.38;;;-2.20;99.90;;;;;;4917223;29;20042;-85
2024/01/14 11:19:21;;;;;;;143.88;43.33;;;-2.10;99.90;;;;;;4931700;29;20035;-86
2024/01/14 11:22:00;;;;;;;142.20;44.78;;;-2.40;99.90;;;;;;4932742;29;20648;-84
2024/01/14 11:24:27;;;;;;;119.30;39.30;;;-2.40;99.90;;;;;;4900399;29;20062;-84
2024/01/14 11:26:54;;;;;;;106.75;32.33;;;-2.50;99.90;;;;;;4902896;29;20086;-84
2024/01/14 11:29:33;;;;;;;122.85;33.72;;;-2.60;99.90;;;;;;4922759;29;20038;-84
2024/01/14 11:32:30;;;;;;;137.48;40.42;;;-2.90;99.90;;;;;;4916474;29;20091;-84
2024/01/14 11:34:59;;;;;;;142.27;30.70;;;-3.00;99.90;;;;;;4909160;29;20040;-84
2024/01/14 11:37:45;;;;;;;96.70;28.33;;;-3.20;99.90;;;;;;4913323;29;20046;-84
2024/01/14 11:40:38;;;;;;;110.20;31.52;;;-3.50;99.90;;;;;;4898547;29;20127;-84
2024/01/14 11:43:06;;;;;;;117.78;30.65;;;-3.50;99.90;;;;;;4927392;29;20038;-86
2024/01/14 11:45:36;;;;;;;98.97;30.60;;;-3.50;99.90;;;;;;4945172;29;20028;-84
2024/01/14 11:48:04;;;;;;;108.93;32.35;;;-3.30;99.90;;;;;;4917874;29;20035;-84
2024/01/14 11:50:32;;;;;;;112.30;33.47;;;-3.30;99.90;;;;;;4901576;29;20380;-84
2024/01/14 11:53:00;;;;;;;105.30;32.47;;;-3.20;99.90;;;;;;4901520;29;20123;-84
2024/01/14 11:55:31;;;;;;;122.63;34.63;;;-3.10;99.90;;;;;;4917508;29;20035;-84
2024/01/14 11:58:19;;;;;;;203.25;38.90;;;-3.00;99.90;;;;;;4922731;29;20042;-84
2024/01/14 12:00:48;;;;;;;133.13;32.75;;;-3.10;99.90;;;;;;4933906;29;20036;-84
2024/01/14 12:03:15;;;;;;;110.88;31.52;;;-3.60;99.90;;;;;;4920201;29;20066;-84
2024/01/14 12:05:42;;;;;;;170.70;33.28;;;-3.60;99.90;;;;;;4905559;29;20492;-84
2024/01/14 12:08:17;;;;;;;101.28;29.77;;;-3.60;99.90;;;;;;4905999;29;20039;-84
2024/01/14 12:10:43;;;;;;;108.97;30.98;;;-3.50;99.90;;;;;;4904517;29;20030;-84
2024/01/14 12:13:18;;;;;;;100.45;28.65;;;-3.40;99.90;;;;;;4933017;29;20110;-85
2024/01/14 12:15:44;;;;;;;115.68;30.83;;;-3.50;99.90;;;;;;4904027;29;20031;-84
2024/01/14 12:18:16;;;;;;;108.22;31.70;;;-3.50;99.90;;;;;;4907983;29;20043;-84
2024/01/14 12:20:43;;;;;;;126.18;34.75;;;-3.60;99.90;;;;;;4920710;29;20023;-84
2024/01/14 12:23:09;;;;;;;116.60;33.90;;;-3.60;99.90;;;;;;4897148;29;20038;-84
2024/01/14 12:25:35;;;;;;;111.53;36.50;;;-3.50;99.90;;;;;;4905042;29;20122;-84
2024/01/14 12:28:01;;;;;;;113.40;33.47;;;-3.40;99.90;;;;;;4922205;29;20039;-85
2024/01/14 12:30:32;;;;;;;108.70;36.42;;;-3.50;99.90;;;;;;4920623;29;20032;-85
2024/01/14 12:33:05;;;;;;;105.00;30.08;;;-3.40;99.90;;;;;;4924458;29;20071;-85
2024/01/14 12:35:35;;;;;;;106.72;30.98;;;-3.10;99.90;;;;;;4931504;29;20123;-85
2024/01/14 12:38:03;;;;;;;113.13;33.72;;;-3.20;99.90;;;;;;4920383;29;20760;-85
2024/01/14 12:40:28;;;;;;;101.05;29.10;;;-3.30;99.90;;;;;;4903732;29;20032;-85
2024/01/14 12:42:54;;;;;;;113.85;37.17;;;-3.40;99.90;;;;;;4904129;29;20616;-85
2024/01/14 12:45:20;;;;;;;96.50;28.48;;;-3.30;99.90;;;;;;4904553;29;20807;-84
2024/01/14 12:47:56;;;;;;;113.13;35.53;;;-3.10;99.90;;;;;;4937038;29;20093;-84
2024/01/14 12:50:21;;;;;;;113.35;34.38;;;-2.90;99.90;;;;;;4919522;29;20030;-85
2024/01/14 12:52:47;;;;;;;101.15;30.80;;;-3.00;99.90;;;;;;4900880;29;20616;-85
2024/01/14 12:55:20;;;;;;;127.18;40.92;;;-3.10;99.90;;;;;;4915308;29;20031;-84
2024/01/14 12:57:46;;;;;;;116.85;36.10;;;-3.10;99.90;;;;;;4932604;29;20042;-85
2024/01/14 13:00:12;;;;;;;107.13;31.83;;;-3.20;99.90;;;;;;4911098;29;20024;-84
2024/01/14 13:02:38;;;;;;;122.95;41.10;;;-3.20;99.90;;;;;;4898813;29;20118;-85
2024/01/14 13:05:04;;;;;;;123.85;38.97;;;-3.00;99.90;;;;;;4912098;29;20122;-85
2024/01/14 13:07:30;;;;;;;224.43;65.60;;;-3.10;99.90;;;;;;4905441;29;20083;-85
2024/01/14 13:09:57;;;;;;;153.68;46.22;;;-3.20;99.90;;;;;;4903148;29;20543;-84
2024/01/14 13:12:22;;;;;;;133.80;40.38;;;-3.10;99.90;;;;;;4923257;29;20123;-84
2024/01/14 13:14:48;;;;;;;120.47;37.20;;;-3.20;99.90;;;;;;4901225;29;20519;-85
2024/01/14 13:17:14;;;;;;;106.60;33.35;;;-3.20;99.90;;;;;;4927468;29;20039;-85
2024/01/14 13:19:40;;;;;;;118.55;35.75;;;-3.10;99.90;;;;;;4913170;29;20027;-86
2024/01/14 13:22:06;;;;;;;106.20;31.52;;;-2.80;99.90;;;;;;4920700;29;20035;-86
2024/01/14 13:24:32;;;;;;;102.32;31.38;;;-2.80;99.90;;;;;;4924995;29;20028;-85
2024/01/14 13:26:58;;;;;;;116.85;31.25;;;-2.70;99.90;;;;;;4906080;29;20024;-85
2024/01/14 13:29:23;;;;;;;100.82;29.73;;;-2.60;99.90;;;;;;4903401;29;20020;-85
2024/01/14 13:31:49;;;;;;;108.45;32.42;;;-2.60;99.90;;;;;;4902794;29;20024;-85
2024/01/14 13:34:15;;;;;;;110.82;34.10;;;-2.70;99.90;;;;;;4917902;29;20054;-86
2024/01/14 13:36:41;;;;;;;106.30;33.25;;;-2.60;99.90;;;;;;4909770;29;20068;-86
2024/01/14 13:39:07;;;;;;;107.10;33.10;;;-2.60;99.90;;;;;;4903928;29;20031;-86
2024/01/14 13:41:33;;;;;;;101.05;33.00;;;-2.60;99.90;;;;;;4928134;29;20035;-85
2024/01/14 13:43:58;;;;;;;114.38;34.72;;;-2.60;99.90;;;;;;4921494;29;20023;-86
2024/01/14 13:46:24;;;;;;;112.83;32.00;;;-2.50;99.90;;;;;;4910904;29;20043;-85
2024/01/14 13:48:50;;;;;;;125.82;33.72;;;-2.50;99.90;;;;;;4916347;29;20036;-85
2024/01/14 13:51:16;;;;;;;117.38;33.55;;;-2.50;99.90;;;;;;4916650;29;20110;-85
2024/01/14 13:53:42;;;;;;;105.78;31.70;;;-2.50;99.90;;;;;;4903266;29;20027;-85
2024/01/14 13:56:07;;;;;;;103.30;30.37;;;-2.40;99.90;;;;;;4901100;29;20126;-86
2024/01/14 13:58:33;;;;;;;;;;;-2.30;99.90;;;;;;4927241;29;20100;-85
2024/01/14 14:00:59;;;;;;;;;;;-2.30;99.90;;;;;;4939270;29;19914;-86
2024/01/14 14:03:24;;;;;;;;;;;-2.20;99.90;;;;;;4902926;29;20318;-85
2024/01/14 14:05:50;;;;;;;;;;;-2.20;99.90;;;;;;4921919;29;19941;-85
2024/01/14 14:08:16;;;;;;;;;;;-2.30;99.90;;;;;;4937579;29;19911;-85
2024/01/14 14:10:41;;;;;;;;;;;-2.50;99.90;;;;;;4920022;29;19915;-86
2024/01/14 14:13:07;;;;;;;;;;;-2.50;99.90;;;;;;4935901;29;19926;-85
2024/01/14 14:15:32;;;;;;;;;;;-2.50;99.90;;;;;;4938820;29;19914;-86